createdAt,value
2022-08-30T00:02:25.362Z,17.70
2022-08-30T00:04:54.424Z,17.70
2022-08-30T00:07:21.680Z,17.60
2022-08-30T00:09:48.602Z,17.60
2022-08-30T00:12:15.694Z,17.60
2022-08-30T00:14:42.633Z,17.60
2022-08-30T00:17:09.625Z,17.60
2022-08-30T00:19:36.697Z,17.50
2022-08-30T00:22:04.094Z,17.60
2022-08-30T00:24:31.627Z,17.60
2022-08-30T00:26:58.811Z,17.70
2022-08-30T00:29:25.713Z,17.70
2022-08-30T00:31:56.811Z,17.70
2022-08-30T00:34:23.743Z,17.70
2022-08-30T00:36:50.660Z,17.60
2022-08-30T00:39:17.588Z,17.70
2022-08-30T00:41:44.995Z,17.70
2022-08-30T00:44:11.964Z,17.70
2022-08-30T00:46:39.059Z,17.70
2022-08-30T00:49:09.418Z,17.70
2022-08-30T00:51:36.508Z,17.70
2022-08-30T00:54:04.543Z,17.80
2022-08-30T00:56:33.073Z,17.80
2022-08-30T00:59:02.355Z,17.80
2022-08-30T01:01:30.368Z,17.70
2022-08-30T01:04:00.329Z,17.70
2022-08-30T01:06:32.734Z,17.70
2022-08-30T01:09:01.526Z,17.70
2022-08-30T01:11:29.219Z,17.70
2022-08-30T01:13:56.644Z,17.70
2022-08-30T01:16:25.570Z,17.70
2022-08-30T01:18:59.595Z,17.70
2022-08-30T01:21:50.119Z,17.70
2022-08-30T01:24:18.316Z,17.70
2022-08-30T01:26:45.380Z,17.70
2022-08-30T01:29:19.925Z,17.70
2022-08-30T01:31:46.856Z,17.70
2022-08-30T01:34:13.784Z,17.70
2022-08-30T01:36:44.842Z,17.70
2022-08-30T01:39:16.530Z,17.70
2022-08-30T01:41:43.778Z,17.70
2022-08-30T01:44:12.463Z,17.60
2022-08-30T01:46:43.203Z,17.60
2022-08-30T01:49:18.878Z,17.60
2022-08-30T01:52:00.525Z,17.60
2022-08-30T01:54:29.278Z,17.60
2022-08-30T01:57:04.130Z,17.60
2022-08-30T01:59:31.231Z,17.60
2022-08-30T02:01:58.256Z,17.60
2022-08-30T02:04:26.969Z,17.60
2022-08-30T02:06:54.003Z,17.60
2022-08-30T02:09:21.043Z,17.70
2022-08-30T02:11:48.610Z,17.70
2022-08-30T02:14:15.595Z,17.70
2022-08-30T02:16:42.666Z,17.60
2022-08-30T02:19:09.710Z,17.60
2022-08-30T02:21:39.902Z,17.60
2022-08-30T02:24:06.981Z,17.60
2022-08-30T02:26:36.419Z,17.60
2022-08-30T02:29:05.991Z,17.50
2022-08-30T02:31:33.269Z,17.50
2022-08-30T02:34:00.210Z,17.50
2022-08-30T02:36:27.324Z,17.40
2022-08-30T02:38:54.543Z,17.40
2022-08-30T02:41:23.681Z,17.40
2022-08-30T02:43:51.442Z,17.40
2022-08-30T02:46:18.700Z,17.50
2022-08-30T02:48:45.762Z,17.50
2022-08-30T02:51:14.559Z,17.50
2022-08-30T02:53:43.935Z,17.50
2022-08-30T02:56:12.786Z,17.50
2022-08-30T02:58:42.560Z,17.40
2022-08-30T03:01:13.160Z,17.30
2022-08-30T03:03:41.392Z,17.30
2022-08-30T03:06:10.572Z,17.30
2022-08-30T03:08:37.787Z,17.40
2022-08-30T03:11:04.909Z,17.40
2022-08-30T03:13:32.092Z,17.30
2022-08-30T03:15:59.401Z,17.40
2022-08-30T03:18:26.915Z,17.30
2022-08-30T03:20:54.606Z,17.30
2022-08-30T03:23:22.982Z,17.30
2022-08-30T03:25:50.081Z,17.30
2022-08-30T03:28:17.162Z,17.30
2022-08-30T03:30:44.184Z,17.20
2022-08-30T03:33:11.528Z,17.20
2022-08-30T03:35:38.594Z,17.20
2022-08-30T03:38:06.500Z,17.30
2022-08-30T03:40:33.704Z,17.20
2022-08-30T03:43:01.142Z,17.20
2022-08-30T03:45:28.436Z,17.20
2022-08-30T03:47:55.535Z,17.20
2022-08-30T03:50:22.748Z,17.10
2022-08-30T03:52:49.872Z,17.10
2022-08-30T03:55:16.934Z,17.10
2022-08-30T03:57:44.029Z,17.10
2022-08-30T04:00:12.437Z,17.10
2022-08-30T04:02:39.777Z,17.10
2022-08-30T04:05:07.946Z,17.10
2022-08-30T04:07:35.254Z,17.10
2022-08-30T04:10:02.502Z,17.10
2022-08-30T04:12:29.832Z,17.10
2022-08-30T04:14:56.945Z,17.10
2022-08-30T04:17:23.939Z,17.20
2022-08-30T04:19:50.982Z,17.20
2022-08-30T04:22:18.691Z,17.10
2022-08-30T04:24:45.616Z,17.20
2022-08-30T04:27:12.638Z,17.20
2022-08-30T04:29:39.653Z,17.20
2022-08-30T04:32:08.834Z,17.20
2022-08-30T04:34:35.895Z,17.10
2022-08-30T04:37:02.795Z,17.20
2022-08-30T04:39:31.172Z,17.10
2022-08-30T04:41:58.950Z,17.10
2022-08-30T04:44:27.519Z,17.20
2022-08-30T04:46:54.789Z,17.20
2022-08-30T04:49:22.963Z,17.20
2022-08-30T04:51:50.055Z,17.30
2022-08-30T04:54:17.165Z,17.30
2022-08-30T04:56:44.170Z,17.30
2022-08-30T04:59:11.164Z,17.30
2022-08-30T05:01:44.867Z,17.30
2022-08-30T05:04:13.539Z,17.30
2022-08-30T05:06:40.508Z,17.30
2022-08-30T05:09:07.393Z,17.40
2022-08-30T05:11:34.595Z,17.50
2022-08-30T05:14:01.502Z,17.60
2022-08-30T05:16:28.444Z,17.60
2022-08-30T05:18:55.474Z,17.70
2022-08-30T05:21:26.545Z,17.70
2022-08-30T05:23:56.181Z,17.70
2022-08-30T05:26:26.118Z,17.70
2022-08-30T05:28:53.551Z,17.80
2022-08-30T05:31:33.132Z,17.80
2022-08-30T05:34:00.872Z,17.70
2022-08-30T05:36:30.324Z,17.80
2022-08-30T05:38:57.674Z,17.70
2022-08-30T05:41:26.601Z,17.70
2022-08-30T05:43:56.209Z,17.80
2022-08-30T05:46:23.286Z,17.80
2022-08-30T05:48:51.090Z,17.80
2022-08-30T05:51:21.645Z,17.80
2022-08-30T05:53:50.300Z,17.80
2022-08-30T05:56:21.443Z,17.90
2022-08-30T05:58:51.802Z,18.00
2022-08-30T06:01:19.929Z,18.00
2022-08-30T06:03:47.651Z,18.10
2022-08-30T06:06:14.988Z,18.20
2022-08-30T06:08:42.614Z,18.20
2022-08-30T06:11:09.625Z,18.40
2022-08-30T06:13:36.559Z,18.30
2022-08-30T06:16:03.814Z,18.30
2022-08-30T06:18:31.629Z,18.30
2022-08-30T06:20:58.881Z,18.30
2022-08-30T06:23:25.802Z,18.30
2022-08-30T06:25:52.803Z,18.40
2022-08-30T06:28:19.730Z,18.40
2022-08-30T06:30:47.630Z,18.40
2022-08-30T06:33:14.531Z,18.40
2022-08-30T06:35:56.785Z,18.40
2022-08-30T06:38:26.974Z,18.30
2022-08-30T06:40:54.016Z,18.40
2022-08-30T06:43:21.019Z,18.40
2022-08-30T06:45:48.254Z,18.40
2022-08-30T06:48:15.175Z,18.40
2022-08-30T06:50:42.458Z,18.40
2022-08-30T06:53:10.037Z,18.40
2022-08-30T06:55:37.699Z,18.30
2022-08-30T06:58:05.011Z,18.30
2022-08-30T07:00:32.011Z,18.20
2022-08-30T07:02:59.353Z,18.20
2022-08-30T07:05:26.309Z,18.30
2022-08-30T07:07:54.335Z,18.30
2022-08-30T07:10:21.828Z,18.30
2022-08-30T07:12:51.331Z,18.30
2022-08-30T07:15:22.926Z,18.30
2022-08-30T07:18:09.208Z,18.30
2022-08-30T07:20:40.593Z,18.40
2022-08-30T07:23:08.803Z,18.40
2022-08-30T07:25:41.422Z,18.50
2022-08-30T07:28:09.939Z,18.60
2022-08-30T07:30:37.733Z,18.60
2022-08-30T07:33:05.179Z,18.80
2022-08-30T07:35:32.589Z,19.00
2022-08-30T07:37:59.925Z,19.30
2022-08-30T07:40:27.490Z,19.50
2022-08-30T07:42:54.645Z,19.50
2022-08-30T07:45:21.709Z,19.60
2022-08-30T07:47:48.833Z,19.60
2022-08-30T07:50:15.970Z,19.40
2022-08-30T07:52:43.076Z,19.30
2022-08-30T07:55:10.197Z,19.30
2022-08-30T07:57:38.638Z,19.10
2022-08-30T08:00:07.210Z,19.10
2022-08-30T08:02:34.342Z,19.00
2022-08-30T08:05:01.267Z,18.90
2022-08-30T08:07:28.371Z,18.80
2022-08-30T08:09:55.295Z,18.80
2022-08-30T08:12:22.201Z,18.70
2022-08-30T08:14:50.010Z,18.90
2022-08-30T08:17:17.003Z,19.00
2022-08-30T08:19:43.939Z,19.10
2022-08-30T08:22:26.271Z,19.20
2022-08-30T08:24:53.283Z,19.30
2022-08-30T08:27:20.248Z,19.40
2022-08-30T08:29:47.578Z,19.60
2022-08-30T08:32:14.497Z,19.70
2022-08-30T08:34:41.585Z,19.90
2022-08-30T08:37:08.639Z,20.10
2022-08-30T08:39:35.591Z,20.10
2022-08-30T08:42:24.807Z,20.20
2022-08-30T08:45:00.741Z,20.10
2022-08-30T08:47:38.700Z,20.00
2022-08-30T08:50:12.144Z,19.80
2022-08-30T08:53:02.551Z,19.60
2022-08-30T08:55:30.122Z,19.40
2022-08-30T08:57:57.543Z,19.30
2022-08-30T09:00:24.435Z,19.30
2022-08-30T09:03:00.026Z,19.30
2022-08-30T09:05:34.590Z,19.40
2022-08-30T09:08:09.537Z,19.50
2022-08-30T09:10:51.374Z,19.60
2022-08-30T09:16:06.836Z,20.00
2022-08-30T09:18:50.192Z,20.10
2022-08-30T09:21:26.764Z,20.20
2022-08-30T09:24:03.413Z,20.00
2022-08-30T09:26:36.322Z,19.90
2022-08-30T09:29:05.232Z,20.00
2022-08-30T09:31:45.996Z,20.00
2022-08-30T09:34:18.573Z,19.90
2022-08-30T09:36:49.975Z,19.80
2022-08-30T09:39:31.456Z,19.70
2022-08-30T09:42:21.409Z,19.50
2022-08-30T09:44:48.692Z,19.10
2022-08-30T09:47:40.414Z,18.70
2022-08-30T09:50:14.661Z,18.40
2022-08-30T09:52:55.707Z,18.20
2022-08-30T09:55:43.861Z,18.00
2022-08-30T09:58:21.329Z,17.80
2022-08-30T10:00:55.432Z,17.60
2022-08-30T10:03:51.924Z,17.40
2022-08-30T10:06:27.885Z,17.30
2022-08-30T10:09:08.271Z,17.30
2022-08-30T10:11:38.890Z,17.20
2022-08-30T10:14:41.347Z,17.10
2022-08-30T10:17:27.403Z,17.00
2022-08-30T10:20:16.040Z,17.00
2022-08-30T10:22:46.699Z,17.00
2022-08-30T10:25:23.073Z,17.00
2022-08-30T10:28:00.403Z,17.00
2022-08-30T10:30:28.686Z,17.10
2022-08-30T10:33:00.521Z,17.10
2022-08-30T10:35:38.953Z,17.10
2022-08-30T10:38:21.351Z,17.20
2022-08-30T10:41:13.747Z,17.20
2022-08-30T10:43:46.126Z,17.30
2022-08-30T10:46:29.907Z,17.40
2022-08-30T10:49:01.338Z,17.30
2022-08-30T10:51:42.060Z,17.40
2022-08-30T10:54:24.350Z,17.50
2022-08-30T10:56:52.976Z,17.60
2022-08-30T10:59:21.038Z,17.60
2022-08-30T11:02:06.970Z,17.60
2022-08-30T11:04:55.500Z,17.80
2022-08-30T11:07:25.556Z,17.80
2022-08-30T11:10:30.152Z,17.80
2022-08-30T11:13:12.022Z,17.80
2022-08-30T11:15:57.531Z,17.80
2022-08-30T11:18:28.192Z,17.90
2022-08-30T11:21:16.069Z,17.90
2022-08-30T11:24:18.293Z,18.00
2022-08-30T11:26:51.010Z,18.00
2022-08-30T11:29:27.650Z,18.10
2022-08-30T11:31:56.503Z,18.10
2022-08-30T11:34:45.410Z,18.10
2022-08-30T11:37:37.084Z,18.10
2022-08-30T11:40:13.352Z,18.10
2022-08-30T11:42:50.001Z,18.10
2022-08-30T11:45:26.856Z,18.10
2022-08-30T11:47:59.532Z,18.20
2022-08-30T11:50:48.486Z,18.30
2022-08-30T11:53:58.395Z,18.30
2022-08-30T11:56:51.299Z,18.30
2022-08-30T11:59:46.215Z,18.40
2022-08-30T12:02:49.024Z,18.50
2022-08-30T12:05:41.168Z,18.40
2022-08-30T12:08:21.219Z,18.50
2022-08-30T12:10:57.684Z,18.50
2022-08-30T12:13:39.314Z,18.60
2022-08-30T12:16:19.825Z,18.50
2022-08-30T12:18:49.916Z,18.40
2022-08-30T12:21:24.944Z,18.40
2022-08-30T12:24:09.559Z,18.40
2022-08-30T12:26:44.047Z,18.30
2022-08-30T12:29:29.194Z,18.30
2022-08-30T12:31:56.230Z,18.30
2022-08-30T12:34:37.292Z,18.30
2022-08-30T12:37:20.990Z,18.40
2022-08-30T12:39:53.550Z,18.50
2022-08-30T12:42:35.872Z,18.50
2022-08-30T12:45:11.227Z,18.60
2022-08-30T12:48:13.254Z,18.70
2022-08-30T12:50:55.989Z,18.60
2022-08-30T12:53:33.776Z,18.40
2022-08-30T12:56:02.135Z,18.30
2022-08-30T12:58:38.099Z,18.20
2022-08-30T13:01:32.517Z,18.20
2022-08-30T13:04:13.359Z,18.10
2022-08-30T13:06:52.702Z,18.10
2022-08-30T13:09:34.000Z,18.10
2022-08-30T13:12:07.660Z,18.10
2022-08-30T13:14:42.459Z,17.90
2022-08-30T13:17:12.043Z,17.80
2022-08-30T13:19:42.237Z,17.70
2022-08-30T13:22:27.016Z,17.60
2022-08-30T13:24:54.371Z,17.50
2022-08-30T13:27:21.934Z,17.50
2022-08-30T13:29:49.431Z,17.50
2022-08-30T13:32:17.352Z,17.70
2022-08-30T13:34:45.556Z,17.80
2022-08-30T13:40:12.377Z,18.00
2022-08-30T13:42:42.182Z,18.00
2022-08-30T13:47:58.549Z,18.00
2022-08-30T13:50:25.578Z,17.90
2022-08-30T13:52:52.650Z,17.80
2022-08-30T13:55:19.550Z,17.70
2022-08-30T13:57:55.191Z,17.70
2022-08-30T14:00:24.386Z,17.60
2022-08-30T14:02:56.149Z,17.50
2022-08-30T14:06:05.158Z,17.40
2022-08-30T14:08:47.902Z,17.30
2022-08-30T14:11:20.870Z,17.30
2022-08-30T14:16:39.096Z,17.10
2022-08-30T14:19:06.602Z,17.10
2022-08-30T14:21:35.567Z,17.10
2022-08-30T14:24:04.871Z,17.00
2022-08-30T14:26:39.701Z,17.00
2022-08-30T14:29:09.960Z,17.00
2022-08-30T14:31:39.746Z,17.10
2022-08-30T14:34:09.103Z,17.10
2022-08-30T14:36:40.458Z,17.00
2022-08-30T14:39:10.649Z,16.90
2022-08-30T14:41:44.184Z,16.80
2022-08-30T14:44:13.883Z,16.80
2022-08-30T14:46:41.328Z,16.80
2022-08-30T14:49:11.142Z,16.70
2022-08-30T14:51:39.439Z,16.70
2022-08-30T14:54:07.118Z,16.70
2022-08-30T14:56:36.676Z,16.60
2022-08-30T14:59:03.758Z,16.70
2022-08-30T15:01:32.065Z,16.60
2022-08-30T15:04:06.186Z,16.70
2022-08-30T15:06:35.951Z,16.70
2022-08-30T15:09:04.596Z,16.60
2022-08-30T15:11:31.600Z,16.60
2022-08-30T15:14:01.803Z,16.60
2022-08-30T15:16:33.022Z,16.60
2022-08-30T15:19:00.722Z,16.60
2022-08-30T15:21:33.802Z,16.60
2022-08-30T15:24:04.904Z,16.70
2022-08-30T15:26:31.983Z,16.60
2022-08-30T15:28:59.410Z,16.50
2022-08-30T15:31:34.171Z,16.50
2022-08-30T15:34:01.773Z,16.40
2022-08-30T15:36:30.024Z,16.40
2022-08-30T15:38:59.463Z,16.30
2022-08-30T15:41:28.081Z,16.30
2022-08-30T15:43:57.851Z,16.20
2022-08-30T15:46:32.880Z,16.10
2022-08-30T15:49:02.944Z,16.10
2022-08-30T15:51:41.194Z,16.10
2022-08-30T15:54:11.528Z,16.10
2022-08-30T15:56:39.993Z,16.10
2022-08-30T15:59:09.516Z,16.10
2022-08-30T16:01:36.956Z,16.10
2022-08-30T16:04:04.543Z,16.10
2022-08-30T16:06:37.405Z,16.20
2022-08-30T16:09:08.883Z,16.20
2022-08-30T16:11:36.255Z,16.10
2022-08-30T16:14:03.939Z,16.10
2022-08-30T16:16:31.278Z,16.10
2022-08-30T16:18:58.896Z,16.10
2022-08-30T16:21:32.284Z,16.10
2022-08-30T16:24:01.255Z,16.00
2022-08-30T16:26:29.026Z,16.10
2022-08-30T16:28:56.192Z,16.10
2022-08-30T16:31:24.688Z,16.00
2022-08-30T16:33:53.593Z,15.90
2022-08-30T16:36:22.643Z,15.90
2022-08-30T16:38:53.529Z,15.90
2022-08-30T16:41:24.585Z,15.80
2022-08-30T16:43:53.579Z,15.80
2022-08-30T16:46:27.195Z,15.80
2022-08-30T16:48:57.138Z,15.80
2022-08-30T16:51:27.075Z,15.70
2022-08-30T16:53:58.758Z,15.70
2022-08-30T16:56:29.505Z,15.60
2022-08-30T16:59:01.830Z,15.60
2022-08-30T17:01:32.044Z,15.60
2022-08-30T17:03:59.729Z,15.60
2022-08-30T17:06:27.268Z,15.50
2022-08-30T17:08:56.173Z,15.60
2022-08-30T17:11:24.565Z,15.50
2022-08-30T17:13:52.026Z,15.50
2022-08-30T17:16:27.552Z,15.40
2022-08-30T17:19:00.568Z,15.40
2022-08-30T17:21:29.859Z,15.40
2022-08-30T17:24:02.103Z,15.40
2022-08-30T17:26:35.283Z,15.30
2022-08-30T17:29:02.687Z,15.30
2022-08-30T17:31:31.292Z,15.20
2022-08-30T17:34:03.299Z,15.20
2022-08-30T17:36:35.500Z,15.20
2022-08-30T17:39:10.607Z,15.00
2022-08-30T17:41:40.053Z,15.00
2022-08-30T17:44:13.153Z,15.00
2022-08-30T17:46:40.904Z,14.90
2022-08-30T17:49:10.567Z,15.00
2022-08-30T17:51:42.025Z,14.90
2022-08-30T17:54:13.107Z,14.90
2022-08-30T17:56:41.190Z,15.00
2022-08-30T17:59:11.810Z,14.90
2022-08-30T18:01:41.731Z,15.00
2022-08-30T18:04:11.037Z,14.90
2022-08-30T18:06:38.354Z,14.90
2022-08-30T18:09:08.381Z,15.00
2022-08-30T18:11:39.311Z,14.90
2022-08-30T18:14:07.149Z,15.00
2022-08-30T18:16:39.240Z,15.00
2022-08-30T18:19:17.533Z,15.00
2022-08-30T18:21:44.572Z,14.90
2022-08-30T18:24:12.767Z,15.00
2022-08-30T18:29:31.586Z,14.90
2022-08-30T18:32:00.659Z,14.90
2022-08-30T18:34:28.752Z,14.90
2022-08-30T18:36:56.523Z,14.90
2022-08-30T18:39:24.031Z,14.90
2022-08-30T18:41:54.462Z,14.80
2022-08-30T18:44:28.249Z,14.90
2022-08-30T18:47:00.228Z,14.80
2022-08-30T18:49:28.938Z,14.80
2022-08-30T18:51:59.683Z,14.90
2022-08-30T18:54:26.574Z,14.80
2022-08-30T18:56:53.514Z,14.90
2022-08-30T18:59:21.927Z,14.80
2022-08-30T19:01:49.875Z,14.80
2022-08-30T19:04:29.465Z,14.70
2022-08-30T19:07:02.445Z,14.70
2022-08-30T19:09:29.419Z,14.70
2022-08-30T19:11:56.405Z,14.70
2022-08-30T19:14:23.295Z,14.70
2022-08-30T19:16:56.278Z,14.60
2022-08-30T19:19:23.804Z,14.60
2022-08-30T19:21:52.065Z,14.60
2022-08-30T19:24:20.183Z,14.50
2022-08-30T19:26:48.741Z,14.50
2022-08-30T19:29:16.067Z,14.40
2022-08-30T19:31:43.965Z,14.40
2022-08-30T19:34:11.719Z,14.40
2022-08-30T19:36:39.094Z,14.30
2022-08-30T19:39:06.904Z,14.30
2022-08-30T19:41:33.909Z,14.20
2022-08-30T19:44:03.058Z,14.20
2022-08-30T19:46:32.453Z,14.20
2022-08-30T19:49:01.173Z,14.20
2022-08-30T19:51:28.252Z,14.10
2022-08-30T19:53:56.332Z,14.10
2022-08-30T19:56:26.289Z,14.00
2022-08-30T19:58:53.576Z,14.00
2022-08-30T20:01:33.587Z,14.00
2022-08-30T20:04:04.378Z,13.90
2022-08-30T20:06:32.419Z,13.90
2022-08-30T20:09:00.504Z,13.90
2022-08-30T20:11:28.040Z,13.80
2022-08-30T20:13:55.022Z,13.70
2022-08-30T20:16:33.238Z,13.70
2022-08-30T20:19:06.471Z,13.70
2022-08-30T20:21:33.917Z,13.60
2022-08-30T20:24:01.364Z,13.60
2022-08-30T20:24:27.037Z,14.90
2022-08-30T20:26:33.676Z,13.50
2022-08-30T20:29:01.943Z,13.50
2022-08-30T20:31:29.336Z,13.50
2022-08-30T20:33:56.367Z,13.40
2022-08-30T20:36:23.330Z,13.40
2022-08-30T20:38:50.257Z,13.30
2022-08-30T20:41:19.085Z,13.30
2022-08-30T20:43:47.304Z,13.30
2022-08-30T20:46:17.413Z,13.40
2022-08-30T20:48:45.647Z,13.30
2022-08-30T20:51:16.539Z,13.30
2022-08-30T20:53:44.148Z,13.30
2022-08-30T20:56:21.771Z,13.30
2022-08-30T20:58:49.807Z,13.30
2022-08-30T21:01:17.340Z,13.20
2022-08-30T21:03:45.260Z,13.20
2022-08-30T21:06:12.262Z,13.10
2022-08-30T21:08:39.891Z,13.10
2022-08-30T21:11:07.093Z,13.10
2022-08-30T21:13:34.402Z,13.00
2022-08-30T21:16:03.526Z,12.90
2022-08-30T21:18:33.150Z,12.90
2022-08-30T21:21:21.607Z,12.90
2022-08-30T21:23:49.553Z,12.90
2022-08-30T21:26:17.790Z,12.80
2022-08-30T21:28:48.188Z,12.80
2022-08-30T21:31:17.937Z,12.70
2022-08-30T21:33:46.405Z,12.70
2022-08-30T21:36:31.802Z,12.70
2022-08-30T21:39:00.727Z,12.70
2022-08-30T21:41:30.212Z,12.70
2022-08-30T21:43:58.879Z,12.70
2022-08-30T21:46:27.740Z,12.70
2022-08-30T21:48:54.780Z,12.70
2022-08-30T21:51:21.973Z,12.60
2022-08-30T21:53:48.966Z,12.60
2022-08-30T21:56:21.839Z,12.50
2022-08-30T21:58:49.421Z,12.60
2022-08-30T22:01:21.078Z,12.50
2022-08-30T22:03:48.115Z,12.50
2022-08-30T22:06:15.541Z,12.50
2022-08-30T22:08:44.966Z,12.40
2022-08-30T22:11:15.372Z,12.40
2022-08-30T22:13:45.321Z,12.30
2022-08-30T22:16:15.721Z,12.30
2022-08-30T22:18:43.595Z,12.30
2022-08-30T22:21:13.994Z,12.30
2022-08-30T22:23:41.139Z,12.30
2022-08-30T22:26:10.216Z,12.20
2022-08-30T22:28:37.600Z,12.20
2022-08-30T22:31:08.098Z,12.20
2022-08-30T22:33:35.973Z,12.20
2022-08-30T22:36:12.722Z,12.20
2022-08-30T22:38:40.327Z,12.10
2022-08-30T22:41:16.702Z,12.20
2022-08-30T22:43:44.502Z,12.20
2022-08-30T22:46:12.239Z,12.20
2022-08-30T22:48:41.865Z,12.20
2022-08-30T22:51:10.014Z,12.20
2022-08-30T22:53:37.023Z,12.20
2022-08-30T22:56:16.444Z,12.30
2022-08-30T22:58:44.327Z,12.30
2022-08-30T23:01:29.529Z,12.20
2022-08-30T23:03:57.183Z,12.20
2022-08-30T23:06:24.844Z,12.20
2022-08-30T23:08:51.809Z,12.20
2022-08-30T23:11:19.451Z,12.10
2022-08-30T23:13:47.096Z,12.20
2022-08-30T23:16:15.380Z,12.10
2022-08-30T23:18:44.555Z,12.10
2022-08-30T23:21:14.503Z,12.00
2022-08-30T23:24:00.146Z,12.00
2022-08-30T23:26:46.017Z,11.90
2022-08-30T23:29:32.283Z,12.00
2022-08-30T23:32:17.803Z,11.90
2022-08-30T23:35:03.243Z,11.90
2022-08-30T23:37:48.598Z,11.80
2022-08-30T23:40:40.121Z,11.80
2022-08-30T23:43:26.492Z,11.70
2022-08-30T23:46:19.070Z,11.80
2022-08-30T23:49:08.377Z,11.70
2022-08-30T23:51:55.280Z,11.70
2022-08-30T23:54:40.660Z,11.70
2022-08-30T23:57:26.222Z,11.50
